createdAt,value
2023-01-07T07:30:17.404Z,48
2023-01-07T07:35:16.745Z,48
2023-01-07T07:40:16.697Z,48
2023-01-07T07:45:20.999Z,47
2023-01-07T07:50:20.058Z,48
2023-01-07T07:55:42.107Z,48
2023-01-07T08:00:14.330Z,48
2023-01-07T08:06:08.081Z,48
2023-01-07T08:10:17.912Z,48
2023-01-07T08:15:15.343Z,47
2023-01-07T08:20:22.460Z,48
2023-01-07T08:25:14.674Z,48
2023-01-07T08:30:14.161Z,48
2023-01-07T08:35:27.706Z,48
2023-01-07T08:40:23.501Z,48
2023-01-07T08:45:20.466Z,48
2023-01-07T08:51:04.679Z,48
2023-01-07T08:55:16.794Z,49
2023-01-07T09:00:16.905Z,48
2023-01-07T09:05:17.800Z,49
2023-01-07T09:10:18.631Z,49
2023-01-07T09:15:18.585Z,48
2023-01-07T09:20:22.783Z,48
2023-01-07T09:25:18.753Z,48
2023-01-07T09:30:16.933Z,48
2023-01-07T09:35:14.042Z,48
2023-01-07T09:40:18.213Z,48
2023-01-07T09:45:16.481Z,48
2023-01-07T09:50:14.547Z,49
2023-01-07T09:56:15.388Z,49
2023-01-07T10:00:18.739Z,50
2023-01-07T10:05:17.925Z,50
2023-01-07T10:11:57.891Z,49
2023-01-07T10:15:14.734Z,51
2023-01-07T10:20:18.250Z,54
2023-01-07T10:25:20.033Z,51
2023-01-07T10:30:16.014Z,51
2023-01-07T10:35:19.943Z,50
2023-01-07T10:41:07.960Z,48
2023-01-07T10:45:14.251Z,49
2023-01-07T10:50:22.255Z,51
2023-01-07T10:55:18.000Z,50
2023-01-07T11:00:14.260Z,51
2023-01-07T11:05:20.086Z,50
2023-01-07T11:11:09.601Z,51
2023-01-07T11:15:43.492Z,48
2023-01-07T11:21:07.474Z,51
2023-01-07T11:25:23.724Z,52
2023-01-07T11:30:26.588Z,51
2023-01-07T11:35:16.706Z,51
2023-01-07T11:40:22.539Z,51
2023-01-07T11:46:22.484Z,50
2023-01-07T11:50:16.116Z,51
2023-01-07T11:55:14.628Z,50
2023-01-07T12:00:19.902Z,51
2023-01-07T12:05:17.911Z,52
2023-01-07T12:10:16.008Z,51
2023-01-07T12:15:14.657Z,51
2023-01-07T12:20:13.989Z,52
2023-01-07T12:25:20.152Z,52
2023-01-07T12:30:15.347Z,52
2023-01-07T12:35:29.319Z,52
2023-01-07T12:40:18.404Z,49
2023-01-07T12:45:14.348Z,50
2023-01-07T12:50:14.581Z,49
2023-01-07T12:55:17.672Z,50
2023-01-07T13:00:17.089Z,50
2023-01-07T13:05:16.112Z,50
2023-01-07T13:10:14.190Z,50
2023-01-07T13:15:18.349Z,50
2023-01-07T13:20:22.758Z,51
2023-01-07T13:25:20.649Z,50
2023-01-07T13:30:14.721Z,50
2023-01-07T13:35:19.835Z,51
2023-01-07T13:40:21.756Z,50
2023-01-07T13:45:20.712Z,50
2023-01-07T13:50:15.082Z,50
2023-01-07T13:55:22.226Z,50
2023-01-07T14:00:22.363Z,50
2023-01-07T14:05:16.999Z,51
2023-01-07T14:10:16.162Z,52
2023-01-07T14:15:14.432Z,51
2023-01-07T14:20:16.337Z,51
2023-01-07T14:25:20.116Z,50
2023-01-07T14:30:30.560Z,51
2023-01-07T14:35:28.645Z,51
2023-01-07T14:40:16.699Z,52
2023-01-07T14:45:18.611Z,51
2023-01-07T14:50:20.566Z,52
2023-01-07T14:55:14.794Z,52
2023-01-07T15:00:14.145Z,52
2023-01-07T15:05:20.931Z,52
2023-01-07T15:10:17.858Z,51
2023-01-07T15:15:16.072Z,52
2023-01-07T15:20:18.039Z,52
2023-01-07T15:25:22.870Z,51
2023-01-07T15:30:16.016Z,52
2023-01-07T15:35:17.836Z,52
2023-01-07T15:40:16.265Z,52
2023-01-07T15:45:14.678Z,52
2023-01-07T15:50:16.244Z,51
2023-01-07T15:55:20.133Z,52
2023-01-07T16:00:22.366Z,52
2023-01-07T16:05:16.604Z,52
2023-01-07T16:10:14.858Z,52
2023-01-07T16:15:16.774Z,53
2023-01-07T16:20:13.934Z,53
2023-01-07T16:25:20.122Z,53
2023-01-07T16:30:22.187Z,53
2023-01-07T16:35:16.128Z,53
2023-01-07T16:40:14.562Z,53
2023-01-07T16:45:13.950Z,53
2023-01-07T16:50:16.215Z,53
2023-01-07T16:55:14.230Z,54
2023-01-07T17:00:14.917Z,53
2023-01-07T17:05:22.109Z,53
2023-01-07T17:10:16.166Z,53
2023-01-07T17:15:14.243Z,54
2023-01-07T17:20:24.683Z,54
2023-01-07T17:25:16.872Z,54
2023-01-07T17:30:13.986Z,55
2023-01-07T17:35:16.544Z,56
2023-01-07T17:40:14.601Z,56
2023-01-07T17:45:14.005Z,55
2023-01-07T17:50:14.151Z,55
2023-01-07T17:55:14.615Z,57
2023-01-07T18:00:16.200Z,57
2023-01-07T18:05:16.668Z,56
2023-01-07T18:10:18.555Z,57
2023-01-07T18:15:15.137Z,56
2023-01-07T18:20:14.973Z,55
2023-01-07T18:25:16.510Z,56
2023-01-07T18:30:20.398Z,56
2023-01-07T18:35:24.298Z,56
2023-01-07T18:40:14.503Z,55
2023-01-07T18:45:14.845Z,56
2023-01-07T18:50:21.985Z,56
2023-01-07T18:55:19.795Z,56
2023-01-07T19:00:20.561Z,56
2023-01-07T19:05:22.232Z,54
2023-01-07T19:10:14.344Z,55
2023-01-07T19:15:23.341Z,55
2023-01-07T19:20:14.074Z,54
2023-01-07T19:25:14.353Z,56
2023-01-07T19:30:18.861Z,55
2023-01-07T19:35:16.051Z,55
2023-01-07T19:40:16.457Z,55
2023-01-07T19:45:25.835Z,55
2023-01-07T19:50:16.320Z,54
2023-01-07T19:55:16.470Z,55
2023-01-07T20:00:18.483Z,55
2023-01-07T20:05:20.660Z,55
2023-01-07T20:10:18.597Z,55
2023-01-07T20:15:16.638Z,55
2023-01-07T20:20:18.604Z,55
2023-01-07T20:25:14.742Z,55
2023-01-07T20:30:14.000Z,55
2023-01-07T20:35:14.580Z,55
2023-01-07T20:40:21.997Z,55
2023-01-07T20:45:16.105Z,55
2023-01-07T20:50:26.161Z,54
2023-01-07T20:55:22.003Z,54
2023-01-07T21:00:17.930Z,54
2023-01-07T21:05:17.907Z,55
2023-01-07T21:10:21.820Z,54
2023-01-07T21:15:17.748Z,55
2023-01-07T21:20:15.952Z,53
2023-01-07T21:25:16.373Z,55
2023-01-07T21:30:17.651Z,53
2023-01-07T21:35:16.878Z,54
2023-01-07T21:40:17.752Z,55
2023-01-07T21:45:24.731Z,53
2023-01-07T21:50:20.782Z,54
2023-01-07T21:55:18.850Z,53
2023-01-07T22:00:16.009Z,53
2023-01-07T22:05:14.506Z,55
2023-01-07T22:10:18.606Z,54
2023-01-07T22:15:20.608Z,54
2023-01-07T22:20:20.582Z,54
2023-01-07T22:25:14.664Z,53
2023-01-07T22:30:17.934Z,54
2023-01-07T22:35:21.719Z,54
2023-01-07T22:40:18.587Z,54
2023-01-07T22:45:22.631Z,53
2023-01-07T22:50:26.597Z,51
2023-01-07T22:55:24.492Z,53
2023-01-07T23:00:14.929Z,52
2023-01-07T23:05:18.207Z,52
2023-01-07T23:10:26.017Z,51
2023-01-07T23:15:19.838Z,52
2023-01-07T23:20:21.754Z,50
2023-01-07T23:25:18.651Z,51
2023-01-07T23:30:22.639Z,51
2023-01-07T23:35:18.493Z,50
2023-01-07T23:40:18.314Z,51
2023-01-07T23:45:26.413Z,51
2023-01-07T23:50:22.384Z,50
2023-01-07T23:55:14.578Z,50
